Time;durP1;ratioP1;P1;durP2;ratioP2;P2;SDS_P1;SDS_P2;PMS_P1;PMS_P2;Temp;Humidity;BMP_temperature;BMP_pressure;BME280_temperature;BME280_humidity;BME280_pressure;Samples;Min_cycle;Max_cycle;Signal;HPM_P1;HPM_P2
2023/09/26 00:00:04;;;;;;;3.97;2.30;;;20.90;86.20;;;;;;5058067;28;20037;-87
2023/09/26 00:02:30;;;;;;;4.70;3.10;;;20.90;86.00;;;;;;5059292;28;20037;-88
2023/09/26 00:04:58;;;;;;;3.53;1.88;;;20.90;86.20;;;;;;5057946;28;20025;-88
2023/09/26 00:07:23;;;;;;;3.08;1.90;;;20.90;86.30;;;;;;5057434;28;20548;-88
2023/09/26 00:09:49;;;;;;;4.50;2.03;;;20.90;86.20;;;;;;5057406;28;20173;-88
2023/09/26 00:12:14;;;;;;;3.28;2.05;;;20.90;86.10;;;;;;5040464;28;20029;-89
2023/09/26 00:14:40;;;;;;;3.20;2.00;;;20.90;86.00;;;;;;5058244;28;20029;-89
2023/09/26 00:17:06;;;;;;;2.25;1.40;;;20.80;86.10;;;;;;5057606;28;20071;-89
2023/09/26 00:19:31;;;;;;;3.80;1.90;;;20.80;86.30;;;;;;5056850;28;20054;-89
2023/09/26 00:21:57;;;;;;;4.40;1.65;;;20.80;86.40;;;;;;5057094;28;20037;-88
2023/09/26 00:24:23;;;;;;;2.47;1.70;;;20.80;86.40;;;;;;5056587;28;20052;-90
2023/09/26 00:26:48;;;;;;;3.72;1.80;;;20.80;86.50;;;;;;5058610;28;20113;-89
2023/09/26 00:29:14;;;;;;;2.58;1.90;;;20.80;86.40;;;;;;5057354;28;20033;-90
2023/09/26 00:31:40;;;;;;;4.97;2.10;;;20.80;86.30;;;;;;5057177;28;20116;-89
2023/09/26 00:34:05;;;;;;;2.35;1.58;;;20.80;86.40;;;;;;5056833;28;20107;-89
2023/09/26 00:36:31;;;;;;;3.58;1.88;;;20.80;86.40;;;;;;5056608;28;20131;-88
2023/09/26 00:38:57;;;;;;;3.47;1.60;;;20.80;86.50;;;;;;5056330;28;20072;-89
2023/09/26 00:41:22;;;;;;;2.33;1.98;;;20.80;86.60;;;;;;5057348;28;20458;-88
2023/09/26 00:43:48;;;;;;;2.78;1.80;;;20.70;86.50;;;;;;5056714;28;20025;-88
2023/09/26 00:46:15;;;;;;;2.97;2.13;;;20.60;86.60;;;;;;5055828;28;20033;-89
2023/09/26 00:48:41;;;;;;;5.45;3.47;;;20.60;86.30;;;;;;5060543;28;20025;-86
2023/09/26 00:51:07;;;;;;;2.83;1.63;;;20.60;86.00;;;;;;5059879;28;20031;-90
2023/09/26 00:53:37;;;;;;;3.15;2.05;;;20.60;86.20;;;;;;5058968;28;20099;-89
2023/09/26 00:56:03;;;;;;;1.92;1.60;;;20.60;86.50;;;;;;5057277;28;20028;-89
2023/09/26 00:58:31;;;;;;;3.25;2.35;;;20.50;86.50;;;;;;5055758;28;20033;-88
2023/09/26 01:00:58;;;;;;;2.38;2.03;;;20.50;86.70;;;;;;5056679;28;20105;-89
2023/09/26 01:03:24;;;;;;;4.65;1.80;;;20.60;86.80;;;;;;5056439;28;20025;-89
2023/09/26 01:05:49;;;;;;;2.10;1.60;;;20.60;86.70;;;;;;5057005;28;20442;-88
2023/09/26 01:08:15;;;;;;;2.42;1.45;;;20.50;86.70;;;;;;5057242;28;20036;-89
2023/09/26 01:10:42;;;;;;;2.75;1.60;;;20.50;86.60;;;;;;5056703;28;20040;-89
2023/09/26 01:13:08;;;;;;;3.97;1.95;;;20.60;86.80;;;;;;5056391;28;20040;-89
2023/09/26 01:15:39;;;;;;;3.67;2.63;;;20.60;86.70;;;;;;5055975;28;20464;-89
2023/09/26 01:18:10;;;;;;;5.43;2.22;;;20.50;86.20;;;;;;5054834;28;20111;-89
2023/09/26 01:20:45;;;;;;;4.15;2.65;;;20.50;86.20;;;;;;5055778;28;20037;-89
2023/09/26 01:23:15;;;;;;;3.83;2.20;;;20.40;86.10;;;;;;5056168;28;20083;-90
2023/09/26 01:25:41;;;;;;;2.88;2.55;;;20.40;86.20;;;;;;5056239;28;20029;-89
2023/09/26 01:28:09;;;;;;;5.18;1.65;;;20.30;86.30;;;;;;5055770;28;20025;-90
2023/09/26 01:30:37;;;;;;;3.90;1.80;;;20.30;86.70;;;;;;5055573;28;20037;-89
2023/09/26 01:33:08;;;;;;;3.00;1.70;;;20.20;87.00;;;;;;5056154;28;20120;-89
2023/09/26 01:35:34;;;;;;;4.07;2.20;;;20.20;87.40;;;;;;5055721;28;20035;-88
2023/09/26 01:37:59;;;;;;;2.55;1.67;;;20.20;87.40;;;;;;5055051;28;20036;-89
2023/09/26 01:40:25;;;;;;;2.97;2.10;;;20.10;87.60;;;;;;5053925;28;20111;-86
2023/09/26 01:42:51;;;;;;;1.90;1.58;;;20.10;87.90;;;;;;5054874;28;20056;-89
2023/09/26 01:45:17;;;;;;;2.85;1.95;;;20.10;87.90;;;;;;5054029;28;20025;-88
2023/09/26 01:47:50;;;;;;;2.80;1.65;;;20.10;88.10;;;;;;5055247;28;20112;-89
2023/09/26 01:50:18;;;;;;;3.90;2.28;;;20.20;88.10;;;;;;5055363;28;20063;-89
2023/09/26 01:52:44;;;;;;;2.45;1.27;;;20.20;88.10;;;;;;5055409;28;20029;-89
2023/09/26 01:55:17;;;;;;;3.55;1.58;;;20.20;88.20;;;;;;5055196;28;20108;-89
2023/09/26 01:57:43;;;;;;;3.25;2.55;;;20.20;88.20;;;;;;5055701;28;20025;-89
2023/09/26 02:00:13;;;;;;;2.30;1.50;;;20.20;88.50;;;;;;5037779;28;20347;-88
2023/09/26 02:02:46;;;;;;;3.47;2.45;;;20.20;88.20;;;;;;5056174;28;20036;-88
2023/09/26 02:05:16;;;;;;;3.85;2.20;;;20.20;88.20;;;;;;5056011;28;20534;-89
2023/09/26 02:07:43;;;;;;;2.10;1.30;;;20.30;88.20;;;;;;5055148;28;20460;-90
2023/09/26 02:10:09;;;;;;;3.75;2.00;;;20.20;88.10;;;;;;5055097;28;20040;-89
2023/09/26 02:12:36;;;;;;;4.25;2.30;;;20.20;88.00;;;;;;5054902;28;20029;-88
2023/09/26 02:15:05;;;;;;;3.03;1.33;;;20.20;87.70;;;;;;5055312;28;20487;-87
2023/09/26 02:17:33;;;;;;;2.10;1.38;;;20.20;87.70;;;;;;5054956;28;20033;-87
2023/09/26 02:20:00;;;;;;;2.67;1.67;;;20.20;87.90;;;;;;5055094;28;20040;-88
2023/09/26 02:22:25;;;;;;;3.70;1.95;;;20.20;87.90;;;;;;5055354;28;20028;-88
2023/09/26 02:24:54;;;;;;;3.92;2.45;;;20.20;87.90;;;;;;5055538;28;20565;-88
2023/09/26 02:27:19;;;;;;;3.42;2.35;;;20.20;88.00;;;;;;5053782;28;20060;-88
2023/09/26 02:29:46;;;;;;;3.75;2.80;;;20.10;88.00;;;;;;5053693;28;20464;-88
2023/09/26 02:32:12;;;;;;;3.40;2.25;;;20.10;87.70;;;;;;5054782;28;20025;-85
2023/09/26 02:34:38;;;;;;;2.97;2.33;;;20.10;87.70;;;;;;5054401;28;20120;-88
2023/09/26 02:37:03;;;;;;;2.17;1.25;;;20.00;87.90;;;;;;5054542;28;20103;-88
2023/09/26 02:39:29;;;;;;;1.75;1.10;;;20.00;88.20;;;;;;5054513;28;20139;-88
2023/09/26 02:41:55;;;;;;;2.38;1.48;;;20.00;88.30;;;;;;5054473;28;20120;-88
2023/09/26 02:44:20;;;;;;;3.60;2.05;;;20.00;88.40;;;;;;5054273;28;20060;-89
2023/09/26 02:46:46;;;;;;;1.98;1.20;;;20.00;88.50;;;;;;5053600;28;20032;-89
2023/09/26 02:49:11;;;;;;;2.97;1.30;;;20.00;88.70;;;;;;5053263;28;20437;-89
2023/09/26 02:51:37;;;;;;;3.00;1.48;;;20.00;88.70;;;;;;5053608;28;20025;-89
2023/09/26 02:54:03;;;;;;;3.63;1.75;;;20.00;88.70;;;;;;5054832;28;20159;-89
2023/09/26 02:56:28;;;;;;;3.78;1.63;;;20.10;88.70;;;;;;5054776;28;20055;-90
2023/09/26 02:58:54;;;;;;;4.18;2.72;;;20.00;88.60;;;;;;5053106;28;20041;-88
2023/09/26 03:01:20;;;;;;;4.43;2.40;;;20.00;88.50;;;;;;5055566;28;20485;-89
2023/09/26 03:03:47;;;;;;;2.88;1.90;;;19.90;88.70;;;;;;5055058;28;20033;-90
2023/09/26 03:06:12;;;;;;;3.35;1.90;;;19.90;88.80;;;;;;5052885;28;20051;-89
2023/09/26 03:08:38;;;;;;;2.78;1.83;;;20.00;89.00;;;;;;5052527;28;20565;-89
2023/09/26 03:11:03;;;;;;;3.22;1.77;;;20.00;88.90;;;;;;5054169;28;20029;-89
2023/09/26 03:13:33;;;;;;;2.45;1.65;;;20.00;88.90;;;;;;5052737;28;20029;-90
2023/09/26 03:15:59;;;;;;;2.33;1.83;;;20.00;88.80;;;;;;5054151;28;20461;-90
2023/09/26 03:18:28;;;;;;;3.13;1.88;;;20.00;89.40;;;;;;5054115;28;20056;-89
2023/09/26 03:20:54;;;;;;;4.63;2.80;;;20.00;88.80;;;;;;5053812;28;20036;-88
2023/09/26 03:23:24;;;;;;;4.30;1.92;;;20.00;88.70;;;;;;5052655;28;20057;-88
2023/09/26 03:25:50;;;;;;;4.07;1.90;;;20.00;88.70;;;;;;5054269;28;20094;-90
2023/09/26 03:28:16;;;;;;;5.70;2.92;;;20.00;88.60;;;;;;5053442;28;20020;-89
2023/09/26 03:30:43;;;;;;;2.95;2.20;;;20.00;88.60;;;;;;5054048;28;20032;-90
2023/09/26 03:33:10;;;;;;;4.85;3.25;;;19.90;88.60;;;;;;5053621;28;20103;-89
2023/09/26 03:35:35;;;;;;;3.47;2.63;;;19.90;88.80;;;;;;5052523;28;20033;-89
2023/09/26 03:38:01;;;;;;;3.63;1.80;;;19.90;88.80;;;;;;5036029;28;20025;-90
2023/09/26 03:40:27;;;;;;;5.03;2.60;;;19.90;88.90;;;;;;5053447;28;20186;-89
2023/09/26 03:42:53;;;;;;;1.92;1.38;;;19.80;88.90;;;;;;5052468;28;20049;-87
2023/09/26 03:45:18;;;;;;;2.33;1.70;;;19.90;89.10;;;;;;5054144;28;20111;-89
2023/09/26 03:47:44;;;;;;;3.25;1.50;;;19.80;89.10;;;;;;5053694;28;20032;-84
2023/09/26 03:50:10;;;;;;;4.10;2.25;;;19.80;89.00;;;;;;5053984;28;20545;-89
2023/09/26 03:52:35;;;;;;;8.02;3.20;;;19.80;89.00;;;;;;5054321;28;20106;-89
2023/09/26 03:55:02;;;;;;;3.00;2.45;;;19.70;88.80;;;;;;5053950;28;20392;-89
2023/09/26 03:57:30;;;;;;;2.83;1.60;;;19.70;88.80;;;;;;5053676;28;20104;-88
2023/09/26 03:59:56;;;;;;;4.10;1.90;;;19.70;89.10;;;;;;5054098;28;20029;-90
2023/09/26 04:02:22;;;;;;;3.53;2.72;;;19.70;89.40;;;;;;5053423;28;20381;-91
2023/09/26 04:04:47;;;;;;;4.30;2.60;;;19.60;89.50;;;;;;5050869;28;20124;-89
2023/09/26 04:07:13;;;;;;;2.00;1.52;;;19.70;89.60;;;;;;5033302;28;20323;-82
2023/09/26 04:09:39;;;;;;;5.88;1.98;;;19.70;89.60;;;;;;5032690;28;20535;-84
2023/09/26 04:12:06;;;;;;;2.83;1.42;;;19.70;89.70;;;;;;5032434;28;20075;-83
2023/09/26 04:14:32;;;;;;;4.60;1.38;;;19.70;89.70;;;;;;5030732;28;20044;-83
2023/09/26 04:16:57;;;;;;;3.53;1.70;;;19.70;89.70;;;;;;5032736;28;20030;-84
2023/09/26 04:19:23;;;;;;;4.05;2.35;;;19.70;89.80;;;;;;5031256;28;20458;-83
2023/09/26 04:21:52;;;;;;;2.55;2.30;;;19.70;89.80;;;;;;5032690;28;20029;-83
2023/09/26 04:24:18;;;;;;;2.40;1.45;;;19.70;89.80;;;;;;5032425;28;20141;-83
2023/09/26 04:26:44;;;;;;;2.15;1.50;;;19.80;89.70;;;;;;5031285;28;20327;-84
2023/09/26 04:29:10;;;;;;;2.42;1.85;;;19.70;89.70;;;;;;5031066;28;20048;-83
2023/09/26 04:31:36;;;;;;;2.70;1.92;;;19.70;89.80;;;;;;5032350;28;20470;-84
2023/09/26 04:34:01;;;;;;;2.85;1.83;;;19.70;89.80;;;;;;5035331;28;20056;-82
2023/09/26 04:36:29;;;;;;;3.42;1.88;;;19.70;89.90;;;;;;5035310;28;20167;-82
2023/09/26 04:38:54;;;;;;;1.85;1.45;;;19.70;90.00;;;;;;5036035;28;20033;-82
2023/09/26 04:41:20;;;;;;;3.00;1.75;;;19.70;90.10;;;;;;5035520;28;20040;-81
2023/09/26 04:43:51;;;;;;;3.17;1.85;;;19.70;90.10;;;;;;5034272;28;20443;-82
2023/09/26 04:46:17;;;;;;;3.35;1.90;;;19.70;90.10;;;;;;5036232;28;20040;-82
2023/09/26 04:48:44;;;;;;;2.63;1.95;;;19.70;90.10;;;;;;5035903;28;20116;-82
2023/09/26 04:51:13;;;;;;;4.47;2.10;;;19.70;90.00;;;;;;5036005;28;20033;-82
2023/09/26 04:53:40;;;;;;;2.88;1.85;;;19.70;90.00;;;;;;5035719;28;20417;-82
2023/09/26 04:56:06;;;;;;;2.25;1.40;;;19.70;90.10;;;;;;5035610;28;20054;-81
2023/09/26 04:58:32;;;;;;;4.05;1.85;;;19.70;90.10;;;;;;5035654;28;20527;-81
2023/09/26 05:01:00;;;;;;;4.38;1.70;;;19.70;90.10;;;;;;5035562;28;20025;-81
2023/09/26 05:03:27;;;;;;;3.15;1.67;;;19.70;90.10;;;;;;5035386;28;20028;-81
2023/09/26 05:05:53;;;;;;;3.80;1.83;;;19.70;90.10;;;;;;5034185;28;20366;-82
2023/09/26 05:08:18;;;;;;;3.45;1.85;;;19.70;90.10;;;;;;5036075;28;20044;-82
2023/09/26 05:10:44;;;;;;;3.05;1.60;;;19.70;90.10;;;;;;5035416;28;20036;-82
2023/09/26 05:13:10;;;;;;;3.42;2.13;;;19.60;90.10;;;;;;5033776;28;20084;-82
2023/09/26 05:15:35;;;;;;;3.35;2.45;;;19.60;90.10;;;;;;5017840;28;20139;-82
2023/09/26 05:18:02;;;;;;;2.63;1.73;;;19.60;90.00;;;;;;5035188;28;20028;-82
2023/09/26 05:20:28;;;;;;;4.20;2.88;;;19.60;90.00;;;;;;5035244;28;20044;-83
2023/09/26 05:22:54;;;;;;;3.45;1.48;;;19.50;89.70;;;;;;5034438;28;20304;-82
2023/09/26 05:25:20;;;;;;;2.85;2.25;;;19.50;90.10;;;;;;5033753;28;20135;-83
2023/09/26 05:27:46;;;;;;;3.63;2.30;;;19.50;90.10;;;;;;5035294;28;20462;-83
2023/09/26 05:30:13;;;;;;;2.33;2.10;;;19.40;90.00;;;;;;5035159;28;20038;-82
2023/09/26 05:32:40;;;;;;;3.42;2.40;;;19.30;90.20;;;;;;5034707;28;20385;-82
2023/09/26 05:35:07;;;;;;;4.63;2.85;;;19.30;90.00;;;;;;5033646;28;20121;-82
2023/09/26 05:37:37;;;;;;;5.63;3.17;;;19.30;90.20;;;;;;5035244;28;20026;-82
2023/09/26 05:40:08;;;;;;;4.43;2.50;;;19.30;90.10;;;;;;5034612;28;20490;-82
2023/09/26 05:42:39;;;;;;;4.65;3.80;;;19.20;90.20;;;;;;5034311;28;20033;-82
2023/09/26 05:45:09;;;;;;;6.15;3.35;;;19.20;90.00;;;;;;5034288;28;20033;-82
2023/09/26 05:47:35;;;;;;;4.18;2.15;;;19.10;90.10;;;;;;5033683;28;20030;-82
2023/09/26 05:50:03;;;;;;;5.55;2.80;;;19.00;90.30;;;;;;5034581;28;20037;-82
2023/09/26 05:52:28;;;;;;;3.22;2.00;;;19.00;90.30;;;;;;5034853;28;20026;-82
2023/09/26 05:54:54;;;;;;;5.32;3.47;;;18.90;90.50;;;;;;5033494;28;20029;-82
2023/09/26 05:57:20;;;;;;;4.72;2.40;;;18.90;90.50;;;;;;5034175;28;20084;-82
2023/09/26 05:59:46;;;;;;;3.92;3.03;;;18.90;90.70;;;;;;5033258;28;20041;-83
2023/09/26 06:02:13;;;;;;;4.18;2.25;;;18.80;90.70;;;;;;5034377;28;20032;-83
2023/09/26 06:04:42;;;;;;;6.90;3.95;;;18.70;90.90;;;;;;5034701;28;20374;-82
2023/09/26 06:07:09;;;;;;;4.32;2.63;;;18.70;90.90;;;;;;5034519;28;20026;-83
2023/09/26 06:09:36;;;;;;;2.67;2.10;;;18.60;91.00;;;;;;5034519;28;20037;-82
2023/09/26 06:12:03;;;;;;;3.88;2.50;;;18.70;91.20;;;;;;5034287;28;20420;-82
2023/09/26 06:14:29;;;;;;;3.25;2.15;;;18.80;91.20;;;;;;5033981;28;20021;-82
2023/09/26 06:16:55;;;;;;;4.78;2.85;;;18.80;91.10;;;;;;5034491;28;20029;-82
2023/09/26 06:19:21;;;;;;;2.72;1.85;;;18.90;91.20;;;;;;5033094;28;20508;-82
2023/09/26 06:21:46;;;;;;;3.70;3.03;;;18.90;91.10;;;;;;5034120;28;20083;-82
2023/09/26 06:24:12;;;;;;;5.78;3.45;;;19.00;91.10;;;;;;5034161;28;20386;-82
2023/09/26 06:26:37;;;;;;;3.20;1.85;;;19.00;91.00;;;;;;5033783;28;20034;-82
2023/09/26 06:29:03;;;;;;;4.85;2.65;;;19.10;91.10;;;;;;5016505;28;20381;-82
2023/09/26 06:31:29;;;;;;;5.32;2.88;;;19.00;90.90;;;;;;5034086;28;20026;-82
2023/09/26 06:33:56;;;;;;;4.85;3.05;;;19.10;91.20;;;;;;5033927;28;20098;-82
2023/09/26 06:36:21;;;;;;;4.50;2.85;;;19.10;90.90;;;;;;5033798;28;20033;-82
2023/09/26 06:38:47;;;;;;;5.70;3.15;;;19.10;91.00;;;;;;5033821;28;20030;-82
2023/09/26 06:41:13;;;;;;;7.35;4.80;;;19.10;90.80;;;;;;5033724;28;20112;-81
2023/09/26 06:43:39;;;;;;;7.20;3.65;;;19.10;90.50;;;;;;5015791;28;20327;-81
2023/09/26 06:46:08;;;;;;;4.75;3.30;;;19.10;90.60;;;;;;5033691;28;20095;-81
2023/09/26 06:48:38;;;;;;;5.35;3.05;;;19.10;90.70;;;;;;5033468;28;20117;-82
2023/09/26 06:51:04;;;;;;;4.00;2.95;;;19.00;91.10;;;;;;5033566;28;20057;-81
2023/09/26 06:53:30;;;;;;;5.88;3.15;;;19.00;90.80;;;;;;5033925;28;20071;-81
2023/09/26 06:56:03;;;;;;;5.82;3.40;;;19.00;91.00;;;;;;5033121;28;20143;-81
2023/09/26 06:58:30;;;;;;;6.38;3.45;;;18.90;91.00;;;;;;5033848;28;20036;-81
2023/09/26 07:00:55;;;;;;;6.07;2.55;;;18.90;91.10;;;;;;5033688;28;20034;-82
2023/09/26 07:03:21;;;;;;;3.50;2.40;;;19.00;91.20;;;;;;5033417;28;20021;-81
2023/09/26 07:05:47;;;;;;;6.55;3.28;;;19.10;91.10;;;;;;5031955;28;20035;-82
2023/09/26 07:08:14;;;;;;;7.38;3.30;;;19.10;90.90;;;;;;5033297;28;20030;-82
2023/09/26 07:10:40;;;;;;;7.20;4.00;;;19.20;90.80;;;;;;5032804;28;20041;-82
2023/09/26 07:13:06;;;;;;;12.85;5.85;;;19.10;90.60;;;;;;5032662;28;20029;-82
2023/09/26 07:15:32;;;;;;;6.97;4.50;;;19.00;90.60;;;;;;5031837;28;20030;-81
2023/09/26 07:17:59;;;;;;;8.40;4.43;;;18.90;90.80;;;;;;5032585;28;20036;-81
2023/09/26 07:20:28;;;;;;;9.30;4.78;;;18.70;91.00;;;;;;5032851;28;20526;-81
2023/09/26 07:22:54;;;;;;;7.80;4.55;;;18.70;91.20;;;;;;5032870;28;20045;-81
2023/09/26 07:25:21;;;;;;;5.57;3.60;;;18.70;91.10;;;;;;5031149;28;20406;-80
2023/09/26 07:27:46;;;;;;;10.05;4.93;;;18.70;91.10;;;;;;5032598;28;20027;-82
2023/09/26 07:30:12;;;;;;;7.43;2.70;;;18.90;91.20;;;;;;5032557;28;20393;-81
2023/09/26 07:32:38;;;;;;;4.38;3.00;;;18.90;91.20;;;;;;5033445;28;20033;-83
2023/09/26 07:35:04;;;;;;;5.32;3.03;;;19.00;91.20;;;;;;5032741;28;20032;-82
2023/09/26 07:37:31;;;;;;;6.07;3.10;;;19.10;91.00;;;;;;5031675;28;20175;-81
2023/09/26 07:39:57;;;;;;;9.35;5.07;;;19.20;91.10;;;;;;5032249;28;20037;-82
2023/09/26 07:42:23;;;;;;;7.43;4.07;;;19.20;90.80;;;;;;5032568;28;20032;-82
2023/09/26 07:44:48;;;;;;;7.65;3.22;;;19.20;90.60;;;;;;5032411;28;20091;-82
2023/09/26 07:47:14;;;;;;;3.83;2.70;;;19.10;90.70;;;;;;5032706;28;20034;-82
2023/09/26 07:49:40;;;;;;;7.60;3.17;;;19.20;90.80;;;;;;5031217;28;20064;-81
2023/09/26 07:52:07;;;;;;;6.25;3.90;;;19.30;90.70;;;;;;5032472;28;20072;-82
2023/09/26 07:54:33;;;;;;;5.82;3.28;;;19.30;90.80;;;;;;5031525;28;20071;-81
2023/09/26 07:56:58;;;;;;;3.60;2.60;;;19.30;90.70;;;;;;5032772;28;20378;-81
2023/09/26 07:59:24;;;;;;;3.03;2.08;;;19.30;90.80;;;;;;5031209;28;20551;-81
2023/09/26 08:01:50;;;;;;;4.72;2.80;;;19.40;90.80;;;;;;5031250;28;20033;-81
2023/09/26 08:04:15;;;;;;;5.05;2.03;;;19.50;90.70;;;;;;5032603;28;20037;-81
2023/09/26 08:06:42;;;;;;;5.25;2.83;;;19.60;90.60;;;;;;5032685;28;20030;-82
2023/09/26 08:09:07;;;;;;;4.05;2.42;;;19.60;90.50;;;;;;5035961;28;20454;-82
2023/09/26 08:11:33;;;;;;;5.07;2.42;;;19.70;90.40;;;;;;5036704;28;20036;-82
2023/09/26 08:13:59;;;;;;;4.53;1.83;;;19.80;90.30;;;;;;5035820;28;20029;-81
2023/09/26 08:16:24;;;;;;;4.78;2.22;;;19.80;90.30;;;;;;5036439;28;20037;-81
2023/09/26 08:18:50;;;;;;;4.15;2.30;;;19.80;90.30;;;;;;5036496;28;20108;-82
2023/09/26 08:21:17;;;;;;;5.10;2.45;;;19.80;90.30;;;;;;5036467;28;20095;-82
2023/09/26 08:23:43;;;;;;;5.03;2.97;;;19.80;90.30;;;;;;5036264;28;20049;-82
2023/09/26 08:26:12;;;;;;;4.80;2.90;;;19.80;90.30;;;;;;5036189;28;20398;-82
2023/09/26 08:28:39;;;;;;;8.38;3.85;;;19.80;90.30;;;;;;5036406;28;20022;-82
2023/09/26 08:31:07;;;;;;;5.75;3.10;;;19.90;90.30;;;;;;5036343;28;20033;-81
2023/09/26 08:33:34;;;;;;;3.75;2.30;;;19.80;90.10;;;;;;5035648;28;20454;-82
2023/09/26 08:36:00;;;;;;;7.93;3.10;;;19.80;90.20;;;;;;5034857;28;20025;-82
2023/09/26 08:38:26;;;;;;;5.22;3.15;;;19.90;90.30;;;;;;5036051;28;20049;-82
2023/09/26 08:40:52;;;;;;;11.25;4.00;;;19.90;90.20;;;;;;5035577;28;20112;-82
2023/09/26 08:43:24;;;;;;;4.63;3.08;;;19.90;90.20;;;;;;5033940;28;20036;-82
2023/09/26 08:45:50;;;;;;;4.32;3.10;;;20.00;90.20;;;;;;5035950;28;20029;-81
2023/09/26 08:48:16;;;;;;;6.85;4.22;;;20.00;90.10;;;;;;5035684;28;20468;-82
2023/09/26 08:50:42;;;;;;;4.43;2.70;;;19.90;90.00;;;;;;5035547;28;20034;-82
2023/09/26 08:53:08;;;;;;;4.15;2.80;;;19.80;90.30;;;;;;5034319;28;20386;-82
2023/09/26 08:55:34;;;;;;;4.13;1.85;;;19.80;90.30;;;;;;5035419;28;20410;-81
2023/09/26 08:58:00;;;;;;;7.03;2.90;;;19.90;90.30;;;;;;5035673;28;20053;-81
2023/09/26 09:00:27;;;;;;;6.50;3.35;;;19.90;90.40;;;;;;5033908;28;20437;-81
2023/09/26 09:02:53;;;;;;;4.68;2.15;;;19.90;90.40;;;;;;5035272;28;20036;-81
2023/09/26 09:05:20;;;;;;;3.75;1.98;;;19.90;90.40;;;;;;5035690;28;20033;-82
2023/09/26 09:07:47;;;;;;;6.45;3.35;;;19.90;90.40;;;;;;5035125;28;20096;-82
2023/09/26 09:10:16;;;;;;;8.30;3.40;;;20.00;90.40;;;;;;5035305;28;20026;-82
2023/09/26 09:12:47;;;;;;;4.38;2.47;;;20.00;90.30;;;;;;5034961;28;20021;-82
2023/09/26 09:15:15;;;;;;;4.50;2.55;;;20.10;90.40;;;;;;5035337;28;20036;-82
2023/09/26 09:17:46;;;;;;;4.07;2.30;;;20.10;90.40;;;;;;5035338;28;20061;-82
2023/09/26 09:20:16;;;;;;;4.95;2.53;;;20.20;90.40;;;;;;5033036;28;20183;-82
2023/09/26 09:22:46;;;;;;;5.03;2.85;;;20.30;90.40;;;;;;5035064;28;20029;-82
2023/09/26 09:25:12;;;;;;;5.57;3.40;;;20.30;90.40;;;;;;5033361;28;20413;-82
2023/09/26 09:27:43;;;;;;;3.88;2.50;;;20.30;90.40;;;;;;5035021;28;20033;-82
2023/09/26 09:30:14;;;;;;;5.40;2.50;;;20.40;90.40;;;;;;5035148;28;20040;-82
2023/09/26 09:32:44;;;;;;;3.25;1.95;;;20.50;90.20;;;;;;5034867;28;20393;-82
2023/09/26 09:35:13;;;;;;;4.55;2.20;;;20.50;90.20;;;;;;5034843;28;20080;-82
2023/09/26 09:37:41;;;;;;;5.43;3.13;;;20.60;90.20;;;;;;5034492;28;20453;-82
2023/09/26 09:40:08;;;;;;;4.20;2.20;;;20.70;90.10;;;;;;5033659;28;20041;-83
2023/09/26 09:42:35;;;;;;;3.63;2.42;;;20.80;89.90;;;;;;5034920;28;20040;-82
2023/09/26 09:45:00;;;;;;;5.25;3.53;;;20.90;89.60;;;;;;5034318;28;20046;-82
2023/09/26 09:47:29;;;;;;;5.13;4.00;;;21.00;89.20;;;;;;5035048;28;20025;-82
2023/09/26 09:49:59;;;;;;;6.82;3.63;;;21.10;88.40;;;;;;5034284;28;20026;-82
2023/09/26 09:52:27;;;;;;;5.22;3.53;;;21.20;88.00;;;;;;5034886;28;20533;-82
2023/09/26 09:54:58;;;;;;;7.03;3.95;;;21.30;88.60;;;;;;5032961;28;20079;-82
2023/09/26 09:57:28;;;;;;;7.15;3.90;;;21.40;89.20;;;;;;5034039;28;20036;-82
2023/09/26 09:59:55;;;;;;;5.97;3.50;;;21.40;88.90;;;;;;5034107;28;20077;-83
2023/09/26 10:02:22;;;;;;;6.05;3.38;;;21.50;88.00;;;;;;5033009;28;20037;-83
2023/09/26 10:04:48;;;;;;;4.35;3.20;;;21.50;87.80;;;;;;5034334;28;20036;-83
2023/09/26 10:07:17;;;;;;;5.30;3.40;;;21.40;88.60;;;;;;5034045;28;20056;-83
2023/09/26 10:09:44;;;;;;;5.05;3.42;;;21.40;88.50;;;;;;5033844;28;20053;-82
2023/09/26 10:12:11;;;;;;;6.03;4.15;;;21.50;89.00;;;;;;5032374;28;20032;-83
2023/09/26 10:14:37;;;;;;;5.63;3.58;;;21.60;88.90;;;;;;5033561;28;20124;-83
2023/09/26 10:17:06;;;;;;;6.20;3.05;;;21.70;88.70;;;;;;5032914;28;20029;-84
2023/09/26 10:19:33;;;;;;;3.33;2.22;;;21.80;87.40;;;;;;5034222;28;20042;-83
2023/09/26 10:22:19;;;;;;;3.75;3.20;;;21.70;87.00;;;;;;5033845;28;20026;-83
2023/09/26 10:24:46;;;;;;;7.75;4.10;;;21.80;87.30;;;;;;5034161;28;20119;-84
2023/09/26 10:27:12;;;;;;;8.52;3.65;;;21.90;88.10;;;;;;5034176;28;20037;-84
2023/09/26 10:29:38;;;;;;;4.57;3.13;;;21.80;87.50;;;;;;5032681;28;20033;-84
2023/09/26 10:32:06;;;;;;;4.50;3.65;;;21.80;87.00;;;;;;5033892;28;20030;-83
2023/09/26 10:34:37;;;;;;;5.45;3.42;;;21.80;87.00;;;;;;5033817;28;20025;-83
2023/09/26 10:37:07;;;;;;;5.03;3.53;;;21.70;87.30;;;;;;5033788;28;20072;-83
2023/09/26 10:39:38;;;;;;;5.95;2.83;;;21.70;86.90;;;;;;5033414;28;20467;-83
2023/09/26 10:42:23;;;;;;;6.47;3.30;;;21.70;87.10;;;;;;5033685;28;20374;-84
2023/09/26 10:44:50;;;;;;;5.50;4.00;;;21.70;87.90;;;;;;5033304;28;20030;-84
2023/09/26 10:47:21;;;;;;;6.90;3.45;;;21.80;88.20;;;;;;5033652;28;20437;-83
2023/09/26 10:49:47;;;;;;;7.38;3.60;;;21.80;88.20;;;;;;5032376;28;20115;-83
2023/09/26 10:52:13;;;;;;;6.90;2.97;;;21.80;88.00;;;;;;5033388;28;20049;-83
2023/09/26 10:54:41;;;;;;;6.20;3.50;;;21.90;87.90;;;;;;5033523;28;20462;-84
2023/09/26 10:57:07;;;;;;;7.28;3.72;;;21.90;88.60;;;;;;5033496;28;20430;-84
2023/09/26 10:59:33;;;;;;;4.15;2.78;;;21.90;88.70;;;;;;5033145;28;20034;-84
2023/09/26 11:02:01;;;;;;;4.70;2.72;;;21.90;88.50;;;;;;5033500;28;20034;-82
2023/09/26 11:04:28;;;;;;;4.70;3.30;;;21.90;88.50;;;;;;5033223;28;20056;-83
2023/09/26 11:06:55;;;;;;;4.18;2.97;;;22.00;89.50;;;;;;5032948;28;20036;-83
2023/09/26 11:09:21;;;;;;;4.47;2.38;;;22.00;89.50;;;;;;5032169;28;20053;-84
2023/09/26 11:11:47;;;;;;;4.40;2.08;;;22.00;89.50;;;;;;5033441;28;20068;-84
2023/09/26 11:14:13;;;;;;;5.25;2.45;;;22.10;89.20;;;;;;5032644;28;20557;-84
2023/09/26 11:16:42;;;;;;;6.43;2.88;;;22.20;89.00;;;;;;5031105;28;20120;-84
2023/09/26 11:19:12;;;;;;;6.47;3.47;;;22.30;88.50;;;;;;5032873;28;20478;-81
2023/09/26 11:21:38;;;;;;;4.28;2.92;;;22.40;88.30;;;;;;5031700;28;20032;-83
2023/09/26 11:24:27;;;;;;;6.28;3.58;;;22.50;87.90;;;;;;5015208;28;20058;-83
2023/09/26 11:26:56;;;;;;;3.75;2.78;;;22.60;87.40;;;;;;5032821;28;20025;-82
2023/09/26 11:29:23;;;;;;;4.28;2.50;;;22.80;87.50;;;;;;5031761;28;20400;-81
2023/09/26 11:31:51;;;;;;;3.33;2.60;;;22.90;87.30;;;;;;5031737;28;20064;-83
2023/09/26 11:34:17;;;;;;;5.30;2.22;;;23.00;86.60;;;;;;5031936;28;20033;-82
2023/09/26 11:36:43;;;;;;;6.43;2.22;;;23.00;85.70;;;;;;5031663;28;20041;-83
2023/09/26 11:39:15;;;;;;;3.05;2.15;;;23.10;85.50;;;;;;5032897;28;20057;-83
2023/09/26 11:41:41;;;;;;;4.95;1.60;;;23.10;86.80;;;;;;5032637;28;20025;-82
2023/09/26 11:44:11;;;;;;;3.30;2.13;;;23.10;87.00;;;;;;5032224;28;20373;-83
2023/09/26 11:46:47;;;;;;;4.43;1.45;;;23.10;86.80;;;;;;5032508;28;20029;-83
2023/09/26 11:49:13;;;;;;;3.50;1.42;;;23.10;85.60;;;;;;5032747;28;20037;-83
2023/09/26 11:51:39;;;;;;;2.75;1.38;;;23.10;85.90;;;;;;5032497;28;20033;-83
2023/09/26 11:54:06;;;;;;;5.50;1.55;;;23.10;86.00;;;;;;5031317;28;20036;-83
2023/09/26 11:56:35;;;;;;;5.07;1.88;;;23.10;85.50;;;;;;5032385;28;20095;-83
2023/09/26 11:59:04;;;;;;;2.97;1.70;;;23.10;84.70;;;;;;5032902;28;20068;-83
2023/09/26 12:01:30;;;;;;;4.38;1.20;;;23.10;85.00;;;;;;5032613;28;20026;-82
2023/09/26 12:03:56;;;;;;;3.38;1.30;;;23.10;85.30;;;;;;5032810;28;20112;-83
2023/09/26 12:06:22;;;;;;;4.05;1.60;;;23.10;85.40;;;;;;5032342;28;20056;-81
2023/09/26 12:08:48;;;;;;;4.45;1.83;;;23.10;84.90;;;;;;5032635;28;20463;-83
2023/09/26 12:11:14;;;;;;;4.43;1.23;;;23.10;85.20;;;;;;5032217;28;20439;-83
2023/09/26 12:13:39;;;;;;;2.60;1.80;;;23.10;85.20;;;;;;5031794;28;20382;-81
2023/09/26 12:16:05;;;;;;;3.60;1.60;;;23.10;85.00;;;;;;5032650;28;20029;-83
2023/09/26 12:18:32;;;;;;;5.53;1.70;;;23.10;84.60;;;;;;5031351;28;20127;-83
2023/09/26 12:20:58;;;;;;;4.40;1.55;;;23.10;85.60;;;;;;5032378;28;20026;-83
2023/09/26 12:23:26;;;;;;;3.78;1.88;;;23.00;85.50;;;;;;5031262;28;20025;-82
2023/09/26 12:25:52;;;;;;;2.92;1.55;;;23.10;86.20;;;;;;5032151;28;20038;-81
2023/09/26 12:28:18;;;;;;;3.53;1.83;;;23.20;86.10;;;;;;5032244;28;20025;-82
2023/09/26 12:30:44;;;;;;;3.08;1.45;;;23.20;84.90;;;;;;5030732;28;20210;-83
2023/09/26 12:33:09;;;;;;;3.30;1.77;;;23.30;85.40;;;;;;5032437;28;20025;-83
2023/09/26 12:35:35;;;;;;;3.65;1.98;;;23.40;85.60;;;;;;5032046;28;20076;-83
2023/09/26 12:38:01;;;;;;;2.63;1.85;;;23.40;85.60;;;;;;5032066;28;20196;-83
2023/09/26 12:40:27;;;;;;;3.60;1.10;;;23.40;85.20;;;;;;5031019;28;20377;-83
2023/09/26 12:42:52;;;;;;;3.65;2.35;;;23.40;84.60;;;;;;5031067;28;20021;-83